Etusivu
METAR-TAF:

METAR-TAF

Lentoasemat :

Curaçao, Alankomaiden Antillit

Leveyspiiri: 12-12N, Pituuspiiri: 068-58W, korkeus merenpinnasta: 9 m

Tämänhetkinen sää

Tämä raportti tehtiin 22 minuuttia sitten, kello 15.00 UTC
Tuuli 11 kn idästä/kaakosta, vaihdellen idän/koillisen ja kaakon välillä
Lämpötila 32°C
Kosteus 56%
Ilmanpaine 1014 hPa
Näkyvyys 10 km tai enemmän
ei pilviä alle 1500 m:ssä eikä cumulonimbus-pilviä

METAR: TNCC 201500Z 12011KT 070V140 CAVOK 32/22 Q1014 NOSIG

Aika: 11:22 (15:22 UTC)

Sääennuste

Tämä raportti tehtiin 5 tuntia ja 52 minuuttia sitten, kello 09.30 UTC
Ennuste voimassa 20. päivästä klo 12 UTC - 21. päivään klo 12 UTC
Tuuli 12 kn idästä/kaakosta
Näkyvyys 10 km tai enemmän
Muutamia pilviä 2000 ft:n korkeudessa

TAF: TNCC 200930Z 2012/2112 12012KT 9999 FEW020

Säähavainnot ja -ennusteet yli 4000 lentoasemalta (METAR- ja TAF-raportit).

Käytössä olevat sääasemat on merkitty karttaan keltaisilla ja punaisilla pisteillä.

Aseta hiiri pisteen päälle nähdäksesi sääaseman nimen.

Klikkaa sitten nähdäksesi säähavainnot ja -ennusteet.

Kartan vaihtaminen: klikkaa mustalla rastilla varustettuja vihreitä pisteitä, niin voit zoomata sisään; viivalla varustettua vihreää pistettä, niin voit zoomata ulos tai vihreitä nuolia, niin pääset viereisille kartoille.


METAR-TAF: